createdAt,value
2018-01-20T00:00:01.635Z,4.97
2018-01-20T00:00:25.450Z,5.03
2018-01-20T00:00:49.458Z,5.10
2018-01-20T00:01:13.450Z,5.20
2018-01-20T00:01:37.631Z,5.00
2018-01-20T00:02:01.499Z,4.78
2018-01-20T00:02:25.247Z,4.80
2018-01-20T00:02:48.700Z,4.93
2018-01-20T00:03:12.437Z,4.80
2018-01-20T00:03:36.176Z,4.68
2018-01-20T00:04:00.223Z,4.60
2018-01-20T00:04:23.875Z,4.97
2018-01-20T00:04:47.680Z,4.90
2018-01-20T00:05:11.467Z,4.65
2018-01-20T00:05:35.258Z,4.70
2018-01-20T00:05:59.035Z,4.90
2018-01-20T00:06:23.049Z,5.10
2018-01-20T00:06:46.801Z,5.15
2018-01-20T00:07:10.563Z,5.10
2018-01-20T00:07:34.392Z,5.05
2018-01-20T00:07:58.111Z,4.80
2018-01-20T00:08:21.849Z,4.90
2018-01-20T00:08:45.685Z,4.60
2018-01-20T00:09:08.428Z,4.70
2018-01-20T00:09:43.479Z,4.60
2018-01-20T00:10:15.113Z,4.60
2018-01-20T00:10:49.959Z,4.40
2018-01-20T00:11:24.756Z,4.62
2018-01-20T00:12:03.457Z,5.20
2018-01-20T00:12:27.035Z,5.27
2018-01-20T00:12:50.821Z,5.22
2018-01-20T00:13:14.569Z,5.43
2018-01-20T00:13:38.315Z,5.10
2018-01-20T00:14:02.326Z,5.30
2018-01-20T00:14:26.336Z,5.30
2018-01-20T00:14:50.361Z,5.12
2018-01-20T00:15:14.102Z,4.87
2018-01-20T00:15:37.917Z,4.65
2018-01-20T00:16:01.371Z,4.97
2018-01-20T00:16:25.139Z,5.20
2018-01-20T00:16:49.155Z,5.30
2018-01-20T00:17:17.012Z,5.22
2018-01-20T00:17:40.457Z,4.82
2018-01-20T00:18:04.194Z,4.93
2018-01-20T00:18:27.937Z,5.62
2018-01-20T00:18:51.958Z,5.80
2018-01-20T00:19:15.956Z,5.22
2018-01-20T00:19:40.162Z,5.07
2018-01-20T00:20:03.520Z,5.20
2018-01-20T00:20:27.240Z,5.05
2018-01-20T00:20:51.053Z,5.50
2018-01-20T00:21:14.786Z,5.37
2018-01-20T00:21:38.981Z,5.28
2018-01-20T00:22:02.931Z,5.20
2018-01-20T00:22:26.183Z,5.25
2018-01-20T00:22:49.902Z,5.00
2018-01-20T00:23:13.700Z,4.72
2018-01-20T00:23:37.774Z,4.75
2018-01-20T00:24:01.511Z,4.90
2018-01-20T00:24:24.767Z,5.30
2018-01-20T00:24:53.985Z,5.18
2018-01-20T00:25:17.591Z,5.00
2018-01-20T00:25:41.131Z,4.70
2018-01-20T00:26:10.299Z,4.60
2018-01-20T00:26:39.204Z,4.33
2018-01-20T00:27:02.783Z,4.37
2018-01-20T00:27:26.368Z,4.47
2018-01-20T00:27:50.395Z,4.95
2018-01-20T00:28:14.310Z,5.30
2018-01-20T00:28:38.323Z,4.97
2018-01-20T00:29:02.067Z,4.80
2018-01-20T00:29:25.601Z,4.78
2018-01-20T00:29:49.376Z,4.78
2018-01-20T00:30:13.196Z,4.60
2018-01-20T00:30:37.039Z,4.70
2018-01-20T00:31:01.085Z,5.37
2018-01-20T00:31:25.131Z,5.20
2018-01-20T00:31:48.887Z,5.37
2018-01-20T00:32:12.328Z,4.70
2018-01-20T00:32:36.073Z,4.47
2018-01-20T00:32:59.837Z,4.28
2018-01-20T00:33:23.269Z,4.70
2018-01-20T00:33:47.192Z,4.70
2018-01-20T00:34:10.932Z,4.57
2018-01-20T00:34:34.718Z,4.80
2018-01-20T00:34:58.764Z,4.70
2018-01-20T00:35:22.791Z,4.32
2018-01-20T00:35:46.236Z,4.27
2018-01-20T00:36:09.958Z,4.18
2018-01-20T00:36:33.754Z,4.18
2018-01-20T00:36:57.516Z,4.60
2018-01-20T00:37:20.951Z,4.80
2018-01-20T00:37:44.680Z,4.72
2018-01-20T00:38:08.442Z,4.70
2018-01-20T00:38:32.455Z,4.35
2018-01-20T00:38:56.507Z,4.30
2018-01-20T00:39:20.592Z,4.55
2018-01-20T00:39:44.342Z,4.50
2018-01-20T00:40:07.794Z,4.70
2018-01-20T00:40:31.516Z,4.53
2018-01-20T00:40:55.244Z,4.70
2018-01-20T00:41:19.251Z,4.30
2018-01-20T00:41:43.275Z,4.10
2018-01-20T00:42:07.311Z,4.40
2018-01-20T00:42:31.284Z,4.55
2018-01-20T00:42:55.188Z,4.60
2018-01-20T00:43:19.207Z,4.55
2018-01-20T00:43:42.936Z,4.82
2018-01-20T00:44:06.666Z,4.70
2018-01-20T00:44:30.423Z,4.85
2018-01-20T00:44:54.160Z,5.30
2018-01-20T00:45:18.065Z,5.03
2018-01-20T00:45:41.959Z,4.90
2018-01-20T00:46:05.881Z,4.45
2018-01-20T00:46:29.908Z,4.47
2018-01-20T00:46:53.936Z,4.80
2018-01-20T00:47:17.746Z,5.18
2018-01-20T00:47:41.184Z,4.47
2018-01-20T00:48:04.919Z,3.95
2018-01-20T00:48:28.648Z,4.20
2018-01-20T00:48:52.107Z,4.45
2018-01-20T00:49:15.851Z,4.40
2018-01-20T00:49:39.674Z,4.55
2018-01-20T00:50:03.693Z,4.60
2018-01-20T00:50:27.153Z,4.60
2018-01-20T00:50:50.886Z,4.40
2018-01-20T00:51:14.637Z,4.30
2018-01-20T00:51:38.371Z,4.10
2018-01-20T00:52:02.222Z,4.18
2018-01-20T00:52:25.699Z,4.20
2018-01-20T00:52:49.435Z,4.20
2018-01-20T00:53:13.458Z,4.30
2018-01-20T00:53:37.477Z,4.70
2018-01-20T00:54:01.227Z,4.50
2018-01-20T00:54:25.237Z,4.75
2018-01-20T00:54:48.695Z,4.60
2018-01-20T00:55:12.426Z,4.90
2018-01-20T00:55:36.174Z,4.80
2018-01-20T00:55:59.621Z,4.50
2018-01-20T00:56:23.435Z,4.30
2018-01-20T00:56:47.191Z,4.70
2018-01-20T00:57:11.273Z,4.72
2018-01-20T00:57:35.003Z,4.62
2018-01-20T00:57:59.028Z,4.50
2018-01-20T00:58:23.091Z,4.62
2018-01-20T00:58:47.110Z,4.50
2018-01-20T00:59:10.842Z,4.12
2018-01-20T00:59:34.619Z,4.70
2018-01-20T00:59:58.377Z,4.70
2018-01-20T01:00:22.116Z,4.53
2018-01-20T01:00:45.904Z,4.50
2018-01-20T01:01:09.939Z,4.80
2018-01-20T01:01:33.375Z,5.17
2018-01-20T01:01:57.164Z,5.00
2018-01-20T01:02:21.015Z,5.15
2018-01-20T01:02:44.827Z,4.80
2018-01-20T01:03:08.851Z,4.80
2018-01-20T01:03:32.583Z,4.90
2018-01-20T01:03:56.335Z,5.32
2018-01-20T01:04:19.743Z,5.00
2018-01-20T01:04:43.514Z,4.75
2018-01-20T01:05:07.242Z,4.40
2018-01-20T01:05:30.999Z,4.43
2018-01-20T01:05:54.771Z,4.70
2018-01-20T01:06:18.538Z,4.90
2018-01-20T01:06:42.557Z,5.32
2018-01-20T01:07:06.591Z,5.62
2018-01-20T01:07:30.374Z,5.22
2018-01-20T01:07:53.835Z,4.55
2018-01-20T01:08:17.599Z,4.80
2018-01-20T01:08:41.351Z,4.80
2018-01-20T01:09:04.679Z,5.00
2018-01-20T01:09:28.432Z,5.20
2018-01-20T01:09:52.189Z,5.50
2018-01-20T01:10:15.683Z,5.45
2018-01-20T01:10:39.426Z,4.95
2018-01-20T01:11:03.189Z,4.40
2018-01-20T01:11:27.214Z,4.53
2018-01-20T01:11:51.255Z,4.53
2018-01-20T01:12:14.986Z,4.60
2018-01-20T01:12:38.728Z,4.70
2018-01-20T01:13:02.466Z,4.62
2018-01-20T01:13:26.208Z,4.65
2018-01-20T01:13:49.952Z,4.90
2018-01-20T01:14:13.411Z,5.57
2018-01-20T01:14:37.168Z,5.60
2018-01-20T01:15:00.940Z,5.00
2018-01-20T01:15:24.955Z,4.90
2018-01-20T01:15:48.967Z,4.70
2018-01-20T01:16:12.719Z,4.80
2018-01-20T01:16:36.539Z,4.80
2018-01-20T01:16:59.971Z,5.85
2018-01-20T01:17:23.727Z,6.50
2018-01-20T01:17:47.773Z,6.72
2018-01-20T01:18:11.784Z,6.62
2018-01-20T01:18:35.649Z,7.65
2018-01-20T01:18:59.656Z,8.50
2018-01-20T01:19:23.672Z,8.18
2018-01-20T01:19:47.711Z,8.20
2018-01-20T01:20:11.443Z,8.88
2018-01-20T01:20:34.895Z,9.30
2018-01-20T01:20:58.624Z,9.27
2018-01-20T01:21:22.478Z,9.05
2018-01-20T01:21:46.367Z,9.10
2018-01-20T01:22:09.819Z,9.52
2018-01-20T01:22:33.599Z,10.10
2018-01-20T01:22:57.366Z,10.50
2018-01-20T01:23:21.423Z,10.82
2018-01-20T01:23:45.215Z,10.88
2018-01-20T01:24:08.661Z,10.60
2018-01-20T01:24:32.395Z,10.25
2018-01-20T01:24:56.145Z,10.45
2018-01-20T01:25:19.592Z,11.02
2018-01-20T01:25:43.340Z,11.30
2018-01-20T01:26:07.092Z,11.25
2018-01-20T01:26:30.563Z,11.32
2018-01-20T01:26:54.292Z,11.43
2018-01-20T01:27:18.043Z,11.40
2018-01-20T01:27:42.120Z,11.20
2018-01-20T01:28:05.908Z,11.30
2018-01-20T01:28:29.357Z,11.07
2018-01-20T01:28:53.097Z,11.00
2018-01-20T01:29:16.850Z,11.40
2018-01-20T01:29:40.919Z,11.02
2018-01-20T01:30:04.639Z,10.95
2018-01-20T01:30:28.370Z,11.05
2018-01-20T01:30:52.119Z,11.50
2018-01-20T01:31:15.879Z,11.38
2018-01-20T01:31:39.670Z,11.10
2018-01-20T01:32:03.706Z,11.40
2018-01-20T01:32:27.660Z,11.75
2018-01-20T01:32:51.688Z,11.70
2018-01-20T01:33:15.731Z,11.43
2018-01-20T01:33:39.519Z,11.38
2018-01-20T01:34:02.989Z,11.45
2018-01-20T01:34:26.724Z,11.18
2018-01-20T01:34:50.463Z,11.40
2018-01-20T01:35:14.488Z,11.68
2018-01-20T01:35:38.511Z,11.85
2018-01-20T01:36:02.268Z,11.57
2018-01-20T01:36:26.003Z,11.10
2018-01-20T01:36:49.754Z,11.15
2018-01-20T01:37:13.528Z,11.50
2018-01-20T01:37:37.283Z,11.52
2018-01-20T01:38:01.342Z,11.35
2018-01-20T01:38:25.134Z,11.77
2018-01-20T01:38:48.591Z,11.93
2018-01-20T01:39:12.356Z,11.93
2018-01-20T01:39:36.105Z,12.10
2018-01-20T01:40:00.079Z,12.10
2018-01-20T01:40:24.109Z,11.85
2018-01-20T01:40:48.122Z,11.73
2018-01-20T01:41:11.576Z,11.80
2018-01-20T01:41:35.315Z,11.32
2018-01-20T01:41:59.063Z,11.50
2018-01-20T01:42:22.843Z,11.93
2018-01-20T01:42:46.315Z,11.80
2018-01-20T01:43:10.064Z,11.85
2018-01-20T01:43:33.858Z,11.85
2018-01-20T01:43:57.916Z,11.57
2018-01-20T01:44:21.371Z,11.13
2018-01-20T01:44:45.153Z,11.20
2018-01-20T01:45:08.883Z,11.30
2018-01-20T01:45:32.715Z,11.70
2018-01-20T01:45:56.769Z,11.35
2018-01-20T01:46:20.790Z,11.98
2018-01-20T01:46:44.642Z,11.45
2018-01-20T01:47:08.680Z,11.10
2018-01-20T01:47:32.709Z,11.20
2018-01-20T01:47:56.480Z,11.90
2018-01-20T01:48:19.931Z,11.68
2018-01-20T01:48:43.731Z,11.90
2018-01-20T01:49:07.495Z,11.90
2018-01-20T01:49:31.532Z,11.77
2018-01-20T01:49:55.387Z,11.60
2018-01-20T01:50:19.475Z,11.77
2018-01-20T01:50:43.510Z,11.57
2018-01-20T01:51:07.280Z,11.48
2018-01-20T01:51:30.719Z,11.50
2018-01-20T01:51:54.116Z,12.30
2018-01-20T01:52:17.952Z,12.63
2018-01-20T01:52:41.710Z,11.95
2018-01-20T01:53:05.471Z,11.07
2018-01-20T01:53:29.210Z,11.10
2018-01-20T01:53:53.283Z,10.35
2018-01-20T01:54:16.725Z,10.17
2018-01-20T01:54:40.468Z,10.25
2018-01-20T01:55:04.200Z,10.50
2018-01-20T01:55:27.662Z,10.60
2018-01-20T01:55:51.413Z,10.80
2018-01-20T01:56:15.153Z,11.25
2018-01-20T01:56:38.934Z,11.73
2018-01-20T01:57:03.030Z,12.00
2018-01-20T01:57:27.089Z,11.70
2018-01-20T01:57:50.646Z,11.40
2018-01-20T01:58:14.376Z,10.65
2018-01-20T01:58:38.123Z,10.20
2018-01-20T01:59:01.900Z,9.90
2018-01-20T01:59:25.923Z,10.00
2018-01-20T01:59:49.675Z,10.32
2018-01-20T02:00:13.436Z,10.15
2018-01-20T02:00:37.189Z,9.75
2018-01-20T02:01:00.923Z,9.60
2018-01-20T02:01:24.676Z,9.25
2018-01-20T02:01:48.733Z,8.63
2018-01-20T02:02:12.175Z,8.00
2018-01-20T02:02:35.899Z,8.50
2018-01-20T02:02:59.631Z,8.60
2018-01-20T02:03:23.658Z,8.90
2018-01-20T02:03:47.407Z,8.38
2018-01-20T02:04:11.151Z,8.15
2018-01-20T02:04:34.923Z,8.35
2018-01-20T02:04:58.712Z,8.48
2018-01-20T02:05:22.451Z,8.30
2018-01-20T02:05:46.500Z,7.87
2018-01-20T02:06:10.235Z,7.53
2018-01-20T02:06:34.015Z,6.97
2018-01-20T02:06:57.757Z,7.25
2018-01-20T02:07:21.564Z,7.45
2018-01-20T02:07:45.291Z,7.05
2018-01-20T02:08:09.295Z,7.30
2018-01-20T02:08:32.735Z,7.40
2018-01-20T02:08:56.463Z,7.53
2018-01-20T02:09:20.219Z,7.55
2018-01-20T02:09:43.958Z,7.20
2018-01-20T02:10:07.727Z,6.55
2018-01-20T02:10:31.462Z,6.30
2018-01-20T02:10:55.199Z,6.45
2018-01-20T02:11:19.142Z,7.05
2018-01-20T02:11:42.896Z,7.40
2018-01-20T02:12:06.920Z,7.68
2018-01-20T02:12:30.980Z,7.50
2018-01-20T02:12:54.743Z,7.20
2018-01-20T02:13:18.185Z,7.18
2018-01-20T02:13:41.922Z,7.30
2018-01-20T02:14:05.726Z,7.57
2018-01-20T02:14:29.810Z,7.72
2018-01-20T02:14:53.289Z,7.30
2018-01-20T02:15:17.011Z,7.50
2018-01-20T02:15:40.726Z,7.47
2018-01-20T02:16:04.196Z,7.07
2018-01-20T02:16:27.939Z,6.87
2018-01-20T02:16:51.655Z,7.00
2018-01-20T02:17:15.427Z,6.72
2018-01-20T02:17:39.189Z,6.82
2018-01-20T02:18:03.073Z,6.80
2018-01-20T02:18:26.854Z,7.05
2018-01-20T02:18:50.762Z,6.60
2018-01-20T02:19:14.487Z,6.50
2018-01-20T02:19:38.243Z,6.25
2018-01-20T02:20:01.955Z,6.30
2018-01-20T02:20:25.355Z,6.55
2018-01-20T02:20:48.841Z,6.83
2018-01-20T02:21:12.571Z,7.10
2018-01-20T02:21:36.313Z,7.03
2018-01-20T02:22:00.080Z,7.60
2018-01-20T02:22:23.532Z,7.20
2018-01-20T02:22:47.320Z,6.93
2018-01-20T02:23:11.079Z,6.40
2018-01-20T02:23:35.089Z,6.75
2018-01-20T02:23:59.107Z,6.80
2018-01-20T02:24:22.559Z,7.00
2018-01-20T02:24:46.372Z,6.82
2018-01-20T02:25:10.129Z,6.50
2018-01-20T02:25:33.883Z,6.65
2018-01-20T02:25:57.895Z,6.57
2018-01-20T02:26:21.898Z,6.60
2018-01-20T02:26:45.907Z,6.72
2018-01-20T02:27:09.387Z,6.63
2018-01-20T02:27:33.126Z,6.35
2018-01-20T02:27:56.884Z,6.18
2018-01-20T02:28:20.643Z,6.20
2018-01-20T02:28:44.681Z,6.30
2018-01-20T02:29:08.671Z,6.50
2018-01-20T02:29:32.687Z,6.50
2018-01-20T02:29:56.181Z,6.10
2018-01-20T02:30:19.959Z,5.90
2018-01-20T02:30:43.697Z,5.93
2018-01-20T02:31:07.440Z,6.35
2018-01-20T02:31:30.901Z,6.20
2018-01-20T02:31:54.648Z,6.97
2018-01-20T02:32:18.391Z,6.95
2018-01-20T02:32:42.434Z,6.68
2018-01-20T02:33:06.460Z,5.87
2018-01-20T02:33:30.196Z,5.50
2018-01-20T02:33:53.640Z,5.57
2018-01-20T02:34:17.355Z,5.90
2018-01-20T02:34:41.159Z,5.90
2018-01-20T02:35:05.191Z,5.80
2018-01-20T02:35:29.205Z,5.75
2018-01-20T02:35:53.215Z,5.80
2018-01-20T02:36:16.976Z,6.10
2018-01-20T02:36:40.701Z,6.03
2018-01-20T02:37:04.423Z,6.12
2018-01-20T02:37:28.164Z,6.20
2018-01-20T02:37:51.921Z,6.53
2018-01-20T02:38:15.963Z,6.10
2018-01-20T02:38:40.033Z,5.78
2018-01-20T02:39:03.501Z,5.65
2018-01-20T02:39:27.235Z,5.80
2018-01-20T02:39:50.964Z,5.95
2018-01-20T02:40:14.751Z,5.90
2018-01-20T02:40:38.810Z,6.12
2018-01-20T02:41:02.827Z,6.00
2018-01-20T02:41:26.587Z,5.82
2018-01-20T02:41:50.042Z,5.80
2018-01-20T02:42:13.807Z,5.60
2018-01-20T02:42:37.592Z,5.18
2018-01-20T02:43:01.610Z,5.55
2018-01-20T02:43:25.624Z,6.00
2018-01-20T02:43:49.356Z,6.00
2018-01-20T02:44:13.104Z,5.80
2018-01-20T02:44:36.850Z,5.70
2018-01-20T02:45:00.781Z,5.75
2018-01-20T02:45:24.602Z,5.80
2018-01-20T02:45:48.481Z,5.50
2018-01-20T02:46:12.364Z,5.55
2018-01-20T02:46:36.118Z,5.30
2018-01-20T02:46:59.845Z,5.65
2018-01-20T02:47:23.590Z,5.90
2018-01-20T02:47:47.333Z,5.78
2018-01-20T02:48:11.102Z,5.57
2018-01-20T02:48:35.189Z,5.50
2018-01-20T02:48:58.923Z,5.50
2018-01-20T02:49:22.384Z,5.53
2018-01-20T02:49:46.115Z,5.80
2018-01-20T02:50:09.900Z,5.70
2018-01-20T02:50:33.986Z,5.70
2018-01-20T02:50:58.022Z,5.90
2018-01-20T02:51:21.765Z,5.50
2018-01-20T02:51:45.207Z,5.40
2018-01-20T02:52:08.943Z,5.37
2018-01-20T02:52:32.704Z,5.70
2018-01-20T02:52:56.153Z,5.50
2018-01-20T02:53:19.884Z,5.62
2018-01-20T02:53:43.697Z,5.55
2018-01-20T02:54:07.753Z,5.30
2018-01-20T02:54:31.165Z,5.43
2018-01-20T02:54:54.893Z,5.50
2018-01-20T02:55:18.616Z,5.70
2018-01-20T02:55:41.769Z,5.40
2018-01-20T02:56:05.506Z,5.60
2018-01-20T02:56:29.509Z,5.70
2018-01-20T02:56:53.615Z,5.50
2018-01-20T02:57:17.347Z,5.30
2018-01-20T02:57:40.799Z,5.40
2018-01-20T02:58:04.518Z,5.50
2018-01-20T02:58:28.314Z,5.80
2018-01-20T02:58:52.373Z,5.72
2018-01-20T02:59:16.143Z,5.50
2018-01-20T02:59:39.587Z,5.50
2018-01-20T03:00:03.314Z,5.93
2018-01-20T03:00:26.711Z,5.80
2018-01-20T03:00:50.540Z,5.85
2018-01-20T03:01:14.268Z,5.22
2018-01-20T03:01:38.050Z,5.55
2018-01-20T03:02:02.066Z,5.40
2018-01-20T03:02:26.096Z,5.32
2018-01-20T03:02:49.838Z,5.53
2018-01-20T03:03:13.582Z,5.87
2018-01-20T03:03:37.317Z,5.82
2018-01-20T03:04:01.056Z,5.87
2018-01-20T03:04:24.819Z,5.95
2018-01-20T03:04:48.824Z,5.90
2018-01-20T03:05:12.862Z,5.97
2018-01-20T03:05:36.872Z,6.12
2018-01-20T03:06:00.636Z,5.95
2018-01-20T03:06:24.079Z,5.82
2018-01-20T03:06:47.830Z,6.00
2018-01-20T03:07:11.573Z,6.05
2018-01-20T03:07:35.014Z,6.10
2018-01-20T03:07:58.730Z,6.00
2018-01-20T03:08:22.501Z,5.82
2018-01-20T03:08:45.951Z,6.20
2018-01-20T03:09:09.679Z,6.72
2018-01-20T03:09:33.475Z,6.62
2018-01-20T03:09:57.424Z,6.47
2018-01-20T03:10:21.459Z,6.20
2018-01-20T03:10:45.275Z,6.03
2018-01-20T03:11:08.801Z,5.80
2018-01-20T03:11:32.541Z,5.95
2018-01-20T03:11:56.274Z,6.18
2018-01-20T03:12:20.326Z,6.10
2018-01-20T03:12:44.066Z,6.15
2018-01-20T03:13:07.787Z,5.80
2018-01-20T03:13:31.523Z,5.78
2018-01-20T03:13:55.293Z,5.70
2018-01-20T03:14:19.029Z,5.68
2018-01-20T03:14:43.100Z,5.57
2018-01-20T03:15:07.122Z,5.55
2018-01-20T03:15:30.884Z,5.85
2018-01-20T03:15:54.326Z,5.95
2018-01-20T03:16:18.084Z,6.07
2018-01-20T03:16:41.811Z,6.10
2018-01-20T03:17:05.857Z,6.30
2018-01-20T03:17:29.884Z,6.30
2018-01-20T03:17:53.893Z,6.10
2018-01-20T03:18:17.621Z,6.80
2018-01-20T03:18:41.355Z,6.78
2018-01-20T03:19:05.085Z,6.47
2018-01-20T03:19:28.895Z,6.30
2018-01-20T03:19:52.628Z,6.22
2018-01-20T03:20:16.639Z,6.10
2018-01-20T03:20:40.651Z,6.12
2018-01-20T03:21:04.396Z,6.20
2018-01-20T03:21:28.160Z,6.35
2018-01-20T03:21:51.893Z,6.10
2018-01-20T03:22:15.629Z,6.35
2018-01-20T03:22:39.356Z,6.40
2018-01-20T03:23:03.379Z,6.40
2018-01-20T03:23:27.383Z,6.35
2018-01-20T03:23:51.414Z,6.30
2018-01-20T03:24:15.198Z,6.30
2018-01-20T03:24:39.118Z,6.30
2018-01-20T03:25:02.582Z,6.37
2018-01-20T03:25:26.303Z,6.12
2018-01-20T03:25:50.032Z,6.28
2018-01-20T03:26:13.474Z,6.40
2018-01-20T03:26:37.220Z,6.30
2018-01-20T03:27:00.950Z,6.90
2018-01-20T03:27:24.392Z,6.70
2018-01-20T03:27:48.132Z,6.20
2018-01-20T03:28:11.877Z,6.47
2018-01-20T03:28:35.578Z,6.47
2018-01-20T03:28:59.362Z,6.55
2018-01-20T03:29:23.119Z,6.50
2018-01-20T03:29:46.848Z,6.70
2018-01-20T03:30:10.340Z,6.40
2018-01-20T03:30:34.060Z,5.97
2018-01-20T03:30:57.916Z,5.87
2018-01-20T03:31:21.661Z,6.57
2018-01-20T03:31:45.692Z,6.90
2018-01-20T03:32:09.142Z,6.80
2018-01-20T03:32:32.869Z,7.40
2018-01-20T03:32:56.598Z,7.90
2018-01-20T03:33:20.036Z,7.20
2018-01-20T03:33:43.754Z,6.82
2018-01-20T03:34:07.490Z,7.20
2018-01-20T03:34:31.498Z,7.15
2018-01-20T03:34:55.299Z,6.90
2018-01-20T03:35:18.727Z,6.50
2018-01-20T03:35:42.484Z,6.75
2018-01-20T03:36:06.221Z,6.80
2018-01-20T03:36:30.231Z,7.10
2018-01-20T03:36:54.280Z,6.87
2018-01-20T03:37:18.016Z,6.60
2018-01-20T03:37:41.452Z,6.78
2018-01-20T03:38:05.171Z,7.10
2018-01-20T03:38:28.914Z,7.45
2018-01-20T03:38:52.639Z,7.47
2018-01-20T03:39:16.415Z,7.40
2018-01-20T03:39:40.148Z,7.12
2018-01-20T03:40:03.531Z,7.10
2018-01-20T03:40:27.263Z,6.95
2018-01-20T03:40:51.015Z,7.00
2018-01-20T03:41:14.755Z,7.20
2018-01-20T03:41:38.815Z,7.10
2018-01-20T03:42:02.856Z,6.57
2018-01-20T03:42:26.662Z,6.80
2018-01-20T03:42:50.811Z,6.57
2018-01-20T03:43:14.538Z,6.65
2018-01-20T03:43:38.289Z,7.00
2018-01-20T03:44:02.019Z,6.53
2018-01-20T03:44:25.773Z,6.40
2018-01-20T03:44:49.497Z,6.72
2018-01-20T03:45:13.502Z,6.60
2018-01-20T03:45:37.503Z,6.60
2018-01-20T03:46:01.256Z,6.60
2018-01-20T03:46:24.982Z,6.60
2018-01-20T03:46:48.741Z,6.90
2018-01-20T03:47:12.495Z,7.20
2018-01-20T03:47:36.240Z,7.20
2018-01-20T03:48:00.260Z,6.97
2018-01-20T03:48:24.271Z,6.93
2018-01-20T03:48:48.027Z,7.25
2018-01-20T03:49:11.759Z,7.03
2018-01-20T03:49:35.501Z,6.70
2018-01-20T03:49:59.227Z,6.68
2018-01-20T03:50:22.960Z,6.93
2018-01-20T03:50:46.961Z,7.10
2018-01-20T03:51:10.975Z,7.10
2018-01-20T03:51:35.013Z,6.90
2018-01-20T03:51:58.756Z,6.97
2018-01-20T03:52:22.226Z,7.15
2018-01-20T03:52:45.797Z,7.50
2018-01-20T03:53:09.698Z,7.93
2018-01-20T03:53:33.151Z,7.95
2018-01-20T03:53:56.944Z,7.18
2018-01-20T03:54:20.800Z,6.93
2018-01-20T03:54:44.532Z,7.55
2018-01-20T03:55:07.975Z,7.80
2018-01-20T03:55:31.717Z,7.57
2018-01-20T03:55:55.094Z,7.30
2018-01-20T03:56:18.831Z,7.15
2018-01-20T03:56:42.605Z,7.07
2018-01-20T03:57:06.401Z,7.50
2018-01-20T03:57:30.548Z,7.25
2018-01-20T03:57:54.283Z,6.90
2018-01-20T03:58:17.721Z,7.47
2018-01-20T03:58:41.455Z,8.07
2018-01-20T03:59:05.210Z,8.60
2018-01-20T03:59:29.231Z,8.38
2018-01-20T03:59:52.884Z,9.27
2018-01-20T04:00:16.622Z,9.23
2018-01-20T04:00:40.036Z,8.70
2018-01-20T04:01:04.053Z,7.60
2018-01-20T04:01:28.060Z,7.47
2018-01-20T04:01:52.100Z,7.47
2018-01-20T04:02:15.850Z,7.22
2018-01-20T04:02:39.329Z,6.97
2018-01-20T04:03:03.065Z,7.00
2018-01-20T04:03:26.799Z,7.18
2018-01-20T04:03:50.829Z,7.45
2018-01-20T04:04:14.846Z,8.20
2018-01-20T04:04:38.583Z,8.27
2018-01-20T04:05:02.032Z,7.85
2018-01-20T04:05:25.768Z,7.90
2018-01-20T04:05:49.513Z,7.80
2018-01-20T04:06:12.961Z,7.70
2018-01-20T04:06:36.682Z,7.80
2018-01-20T04:07:00.455Z,8.20
2018-01-20T04:07:23.918Z,7.95
2018-01-20T04:07:47.700Z,7.32
2018-01-20T04:08:11.451Z,7.22
2018-01-20T04:08:35.451Z,7.55
2018-01-20T04:08:59.207Z,7.70
2018-01-20T04:09:22.727Z,7.62
2018-01-20T04:09:46.464Z,8.10
2018-01-20T04:10:10.233Z,8.05
2018-01-20T04:10:34.261Z,7.72
2018-01-20T04:10:57.707Z,7.20
2018-01-20T04:11:21.498Z,7.18
2018-01-20T04:11:45.242Z,6.80
2018-01-20T04:12:08.990Z,7.32
2018-01-20T04:12:32.435Z,7.30
2018-01-20T04:12:55.847Z,7.78
2018-01-20T04:13:19.584Z,7.45
2018-01-20T04:13:43.340Z,6.87
2018-01-20T04:14:07.115Z,6.50
2018-01-20T04:14:30.883Z,6.80
2018-01-20T04:14:54.319Z,7.03
2018-01-20T04:15:18.039Z,6.68
2018-01-20T04:15:41.771Z,6.68
2018-01-20T04:16:05.224Z,7.00
2018-01-20T04:16:29.102Z,7.72
2018-01-20T04:16:52.827Z,7.30
2018-01-20T04:17:16.557Z,7.20
2018-01-20T04:17:40.559Z,7.37
2018-01-20T04:18:04.583Z,7.57
2018-01-20T04:18:28.367Z,7.50
2018-01-20T04:18:52.387Z,7.25
2018-01-20T04:19:16.429Z,6.95
2018-01-20T04:19:40.456Z,7.40
2018-01-20T04:20:03.836Z,7.50
2018-01-20T04:20:27.562Z,7.25
2018-01-20T04:20:51.292Z,6.80
2018-01-20T04:21:15.332Z,7.25
2018-01-20T04:21:39.068Z,7.07
2018-01-20T04:22:02.612Z,6.85
2018-01-20T04:22:26.345Z,6.97
2018-01-20T04:22:50.085Z,7.07
2018-01-20T04:23:14.225Z,7.15
2018-01-20T04:23:37.971Z,6.72
2018-01-20T04:24:01.971Z,6.37
2018-01-20T04:24:25.992Z,6.75
2018-01-20T04:24:50.003Z,7.00
2018-01-20T04:25:13.743Z,7.15
2018-01-20T04:25:37.549Z,7.70
2018-01-20T04:26:01.276Z,7.80
2018-01-20T04:26:25.028Z,7.57
2018-01-20T04:26:48.780Z,7.43
2018-01-20T04:27:12.836Z,7.60
2018-01-20T04:27:36.618Z,7.65
2018-01-20T04:28:00.056Z,7.75
2018-01-20T04:28:23.810Z,8.18
2018-01-20T04:28:47.588Z,7.70
2018-01-20T04:29:11.720Z,7.70
2018-01-20T04:29:35.456Z,7.18
2018-01-20T04:29:58.911Z,7.47
2018-01-20T04:30:22.649Z,7.87
2018-01-20T04:30:46.392Z,7.70
2018-01-20T04:31:10.400Z,8.40
2018-01-20T04:31:34.447Z,8.10
2018-01-20T04:31:57.885Z,8.20
2018-01-20T04:32:21.655Z,7.50
2018-01-20T04:32:45.377Z,6.93
2018-01-20T04:33:09.175Z,6.93
2018-01-20T04:33:32.755Z,7.10
2018-01-20T04:33:56.475Z,7.80
2018-01-20T04:34:20.227Z,7.78
2018-01-20T04:34:44.147Z,6.60
2018-01-20T04:35:08.192Z,6.30
2018-01-20T04:35:31.942Z,6.47
2018-01-20T04:35:55.463Z,6.90
2018-01-20T04:36:19.189Z,7.00
2018-01-20T04:36:42.953Z,7.00
2018-01-20T04:37:06.967Z,6.60
2018-01-20T04:37:30.982Z,7.10
2018-01-20T04:37:54.707Z,7.45
2018-01-20T04:38:18.475Z,7.50
2018-01-20T04:38:42.331Z,6.85
2018-01-20T04:39:05.759Z,6.82
2018-01-20T04:39:29.781Z,7.12
2018-01-20T04:39:53.525Z,7.20
2018-01-20T04:40:17.026Z,6.90
2018-01-20T04:40:40.751Z,7.05
2018-01-20T04:41:04.573Z,7.43
2018-01-20T04:41:28.623Z,7.45
2018-01-20T04:41:52.415Z,7.22
2018-01-20T04:42:16.429Z,7.40
2018-01-20T04:42:40.448Z,7.15
2018-01-20T04:43:04.492Z,7.32
2018-01-20T04:43:28.236Z,7.10
2018-01-20T04:43:51.699Z,6.87
2018-01-20T04:44:15.441Z,6.95
2018-01-20T04:44:39.171Z,7.28
2018-01-20T04:45:02.619Z,7.53
2018-01-20T04:45:26.348Z,7.43
2018-01-20T04:45:49.755Z,7.40
2018-01-20T04:46:14.030Z,7.22
2018-01-20T04:46:37.527Z,7.40
2018-01-20T04:47:01.268Z,7.37
2018-01-20T04:47:25.060Z,7.53
2018-01-20T04:47:49.065Z,7.60
2018-01-20T04:48:12.828Z,7.20
2018-01-20T04:48:36.397Z,7.12
2018-01-20T04:49:00.228Z,6.90
2018-01-20T04:49:23.992Z,6.97
2018-01-20T04:49:47.739Z,7.22
2018-01-20T04:50:11.291Z,7.25
2018-01-20T04:50:35.019Z,6.90
2018-01-20T04:50:58.770Z,6.93
2018-01-20T04:51:22.803Z,6.57
2018-01-20T04:51:46.587Z,6.78
2018-01-20T04:52:10.033Z,7.10
2018-01-20T04:52:33.833Z,7.10
2018-01-20T04:52:57.589Z,6.95
2018-01-20T04:53:21.609Z,6.72
2018-01-20T04:53:45.345Z,6.80
2018-01-20T04:54:08.557Z,6.72
2018-01-20T04:54:32.577Z,7.07
2018-01-20T04:54:56.307Z,7.35
2018-01-20T04:55:19.751Z,7.15
2018-01-20T04:55:43.482Z,6.72
2018-01-20T04:56:07.064Z,6.40
2018-01-20T04:56:30.501Z,6.62
2018-01-20T04:56:54.225Z,6.87
2018-01-20T04:57:18.233Z,7.57
2018-01-20T04:57:41.671Z,7.83
2018-01-20T04:58:05.408Z,7.37
2018-01-20T04:58:29.131Z,7.20
2018-01-20T04:58:52.581Z,7.10
2018-01-20T04:59:16.334Z,7.57
2018-01-20T04:59:40.066Z,7.28
2018-01-20T05:00:03.470Z,7.28
2018-01-20T05:00:27.195Z,6.80
2018-01-20T05:00:50.926Z,6.50
2018-01-20T05:01:14.411Z,6.50
2018-01-20T05:01:38.161Z,6.95
2018-01-20T05:02:01.910Z,6.70
2018-01-20T05:02:25.672Z,6.97
2018-01-20T05:02:49.717Z,7.20
2018-01-20T05:03:13.715Z,9.20
2018-01-20T05:03:37.731Z,9.38
2018-01-20T05:04:01.471Z,8.85
2018-01-20T05:04:25.071Z,7.90
2018-01-20T05:04:48.828Z,8.20
2018-01-20T05:05:12.581Z,7.72
2018-01-20T05:05:36.085Z,7.27
2018-01-20T05:06:00.009Z,6.53
2018-01-20T05:06:23.772Z,6.65
2018-01-20T05:06:47.508Z,6.80
2018-01-20T05:07:11.394Z,7.10
2018-01-20T05:07:35.407Z,6.57
2018-01-20T05:07:59.148Z,6.53
2018-01-20T05:08:22.888Z,6.70
2018-01-20T05:08:46.628Z,6.90
2018-01-20T05:09:10.355Z,6.82
2018-01-20T05:09:34.112Z,6.40
2018-01-20T05:09:57.613Z,6.40
2018-01-20T05:10:21.347Z,6.43
2018-01-20T05:10:45.103Z,6.90
2018-01-20T05:11:09.103Z,6.80
2018-01-20T05:11:32.851Z,6.37
2018-01-20T05:11:56.569Z,6.62
2018-01-20T05:12:20.315Z,7.20
2018-01-20T05:12:44.037Z,6.93
2018-01-20T05:13:07.777Z,6.03
2018-01-20T05:13:31.232Z,6.10
2018-01-20T05:13:54.967Z,6.18
2018-01-20T05:14:18.698Z,6.50
2018-01-20T05:14:42.198Z,6.70
2018-01-20T05:15:06.105Z,6.70
2018-01-20T05:15:29.891Z,6.72
2018-01-20T05:15:53.619Z,6.70
2018-01-20T05:16:17.652Z,6.45